Wyaconda, Missouri
Current Conditions -  °F | °C
As of 6:35 AM on Saturday 25 Oct 2014 (Local Time) from KEOK Reporting Station
Moderate Fog Moderate Fog  
Wind Chill: 52°   Ceiling: 100
Heat Index: 52°   Visibility: 0mi
Dew Point: 52°   Wind: 3mph
Humidity: 100%   Direction: 240°WSW
Pressure: 29.99"   Gusts: NA
Location:  40.39°N, 91.93°W
Report Text: KEOK 251135Z AUTO 24003KT M1/4SM FG OVC001 11/11 A2999 RMK AO2
Loading
Personal Weather Stations






























Interactive Weather Map
Tropical Storm Tracking
New forecast layout! Learn more

10-Day Weather Forecast

Advertisements
Track Severe Weather on mobile